Terminal Aerodrome Forecast
Issued by NWS Grand Forks, ND

Home | Current Version | Previous Version | Text Only | Print | Product List | Glossary Off
Versions: 1 2 3 4 5 6 7 8 9 10 11 12 13 14 15 16 17 18 19 20 21

000
FTUS43 KFGF 181300 AAB
TAFFAR
TAF AMD
KFAR 181342Z 1814/1912 19008KT P6SM FEW006 SCT040 BKN100
     FM181500 23007KT P6SM -RA BKN035
     FM181800 27010KT P6SM VCTS BKN050CB
     FM182000 31011KT P6SM VCTS BKN070CB
     FM190000 31005KT P6SM FEW250=

USA.gov is the U.S. government's official web portal to all federal, state and local government web resources and services.